Αρχική σελίδα
METAR-TAF:

METAR-TAF

Αεροδρόμια :

Colby, Κάνσας, Ηνωμένες Πολιτείες Αμερικής

γεωγραφικό πλάτος: 39-25-39N, γεωγραφικό μήκος: 101-02-48W, υψόμετρο: 971 μ

Παρών καιρός

Η αναφορά έγινε 29 λεπτά πριν, στις 10:35 UTC
Άνεμος 19 kt από Β/BΔ
Θερμοκρασία 1°C
Υγρασία 80%
Πίεση 1016 hPa
Ορατότητα: 16.1 χλμ
Διάσπαρτα νέφη σε ύψος 5500 πόδια

METAR: KCBK 131035Z AUTO 33019KT 10SM SCT055 01/M02 A2999 RMK AO2

Χρόνος: 05:04 (11:04 UTC)


TAF: λείπει

Μετεωρολογικές αναφορές και προγνώσεις για περισσότερα από 4000 αεροδρόμια (δελτία METAR και TAF).

Οι διαθέσιμοι σταθμοί απεικονίζονται στο χάρτη με κίτρινες και κόκκινες κουκκίδες.

Μετακινήστε το ποντίκι πάνω από τις κουκκίδες για να δείτε το όνομα του σταθμού.

Στη συνέχεια, κάντε κλικ για να δείτε τις μετεωρολογικές αναφορές και τις προγνώσεις καιρού.

Για να αλλάξετε το χάρτη: κάντε κλικ στα πράσινα κουμπιά με τον μαύρο σταυρό για να ζουμάρετε, στο πράσινο κουμπί με την παύλα για να αφαιρέσετε το ζουμ ή στα πράσινα βέλη για να αντιπαραβάλλετε χάρτες.


METAR-TAF: